Terminal Aerodrome Forecast
Issued by NWS

Home | Current Version | Previous Version | Text Only | Print | Product List | Glossary On
Versions: 1 2 3 4 5 6 7 8 9 10 11 12 13 14 15 16 17 18 19 20 21 22 23 24 25 26 27 28 29 30 31 32 33 34 35 36 37 38 39 40
000
FTUS43 KDLH 301500 AAA
TAFBRD
TAF AMD
KBRD 301509Z 3015/0112 11007KT P6SM OVC006
     FM301900 12011KT P6SM BKN010
     FM302100 12010G15KT P6SM SCT015 BKN060
     FM010100 12008KT P6SM BKN020 OVC050
     FM010300 12008KT P6SM VCSH OVC012 PROB30 0103/0109 6SM -SHRA
      BKN008=

USA.gov is the U.S. government's official web portal to all federal, state and local government web resources and services.